Lester Pr, Minnesota
Current Conditions -  °F | °C
As of 3:34 AM on Thursday 27 Nov 2014 (Local Time) from KGYL Reporting Station
Clear Clear  
Wind Chill: -15°   Ceiling: Unl
Heat Index:   Visibility: 10mi
Dew Point: -5°   Wind: 8mph
Humidity: 79%   Direction: 310°NW
Pressure: 30.47"   Gusts: NA
Location:  44.8552°N, 94.071°W
Report Text: KGYL 270934Z AUTO 31007KT 10SM CLR M18/M21 A3047 RMK AO2 T11801208
Loading
Personal Weather Stations






























Interactive Weather Map New forecast layout! Learn more

10-Day Weather Forecast

Advertisements
Track Severe Weather on mobile